createdAt,value
2018-05-23T00:02:02.253Z,76.43
2018-05-23T00:04:29.967Z,76.50
2018-05-23T00:06:56.753Z,76.38
2018-05-23T00:09:23.661Z,76.86
2018-05-23T00:11:52.239Z,77.17
2018-05-23T00:14:19.026Z,77.27
2018-05-23T00:16:46.035Z,77.90
2018-05-23T00:19:12.686Z,77.79
2018-05-23T00:21:39.366Z,76.87
2018-05-23T00:24:06.014Z,77.12
2018-05-23T00:26:32.593Z,77.51
2018-05-23T00:28:59.443Z,78.15
2018-05-23T00:31:26.400Z,77.28
2018-05-23T00:33:57.880Z,76.79
2018-05-23T00:36:24.462Z,76.29
2018-05-23T00:38:51.090Z,76.87
2018-05-23T00:41:18.730Z,77.40
2018-05-23T00:43:46.630Z,76.14
2018-05-23T00:46:13.246Z,76.20
2018-05-23T00:48:40.714Z,76.76
2018-05-23T00:51:07.308Z,75.95
2018-05-23T00:53:34.276Z,75.40
2018-05-23T00:56:01.230Z,74.83
2018-05-23T00:58:27.819Z,75.33
2018-05-23T01:00:54.470Z,75.78
2018-05-23T01:03:21.273Z,75.67
2018-05-23T01:05:47.893Z,76.91
2018-05-23T01:08:14.635Z,77.11
2018-05-23T01:10:41.326Z,76.07
2018-05-23T01:13:08.264Z,78.12
2018-05-23T01:15:35.554Z,78.33
2018-05-23T01:18:02.286Z,77.73
2018-05-23T01:20:28.886Z,78.54
2018-05-23T01:23:00.189Z,78.24
2018-05-23T01:25:26.886Z,77.89
2018-05-23T01:27:53.533Z,77.76
2018-05-23T01:30:20.100Z,78.63
2018-05-23T01:32:53.794Z,76.47
2018-05-23T01:35:21.015Z,77.29
2018-05-23T01:37:47.645Z,76.21
2018-05-23T01:40:14.394Z,77.37
2018-05-23T01:42:51.750Z,77.06
2018-05-23T01:45:18.315Z,77.19
2018-05-23T01:47:44.956Z,77.32
2018-05-23T01:50:11.569Z,75.98
2018-05-23T01:52:48.362Z,77.86
2018-05-23T01:55:15.024Z,78.43
2018-05-23T01:57:41.584Z,77.87
2018-05-23T02:00:08.441Z,78.51
2018-05-23T02:02:38.709Z,78.77
2018-05-23T02:05:05.363Z,79.37
2018-05-23T02:07:31.975Z,79.26
2018-05-23T02:09:58.883Z,78.61
2018-05-23T02:12:26.742Z,77.91
2018-05-23T02:14:53.443Z,76.88
2018-05-23T02:17:20.101Z,76.67
2018-05-23T02:19:46.701Z,76.46
2018-05-23T02:22:21.371Z,76.70
2018-05-23T02:24:48.064Z,78.29
2018-05-23T02:27:14.713Z,78.55
2018-05-23T02:29:41.423Z,77.87
2018-05-23T02:32:13.278Z,77.18
2018-05-23T02:34:39.927Z,78.48
2018-05-23T02:37:06.794Z,77.18
2018-05-23T02:39:33.410Z,76.50
2018-05-23T02:41:59.909Z,76.81
2018-05-23T02:44:26.989Z,76.72
2018-05-23T02:46:53.635Z,76.04
2018-05-23T02:49:20.289Z,76.61
2018-05-23T02:51:46.948Z,76.34
2018-05-23T02:54:14.750Z,76.17
2018-05-23T02:56:41.466Z,76.17
2018-05-23T02:59:08.053Z,76.42
2018-05-23T03:01:34.758Z,77.52
2018-05-23T03:04:02.541Z,78.37
2018-05-23T03:06:29.187Z,77.39
2018-05-23T03:08:55.823Z,78.25
2018-05-23T03:11:22.366Z,78.34
2018-05-23T03:13:59.509Z,78.10
2018-05-23T03:16:26.042Z,76.41
2018-05-23T03:18:52.756Z,75.34
2018-05-23T03:21:19.438Z,75.65
2018-05-23T03:23:51.681Z,74.60
2018-05-23T03:26:18.331Z,76.22
2018-05-23T03:28:45.013Z,74.84
2018-05-23T03:31:11.621Z,75.65
2018-05-23T03:33:42.288Z,74.33
2018-05-23T03:36:08.951Z,74.87
2018-05-23T03:38:35.425Z,75.65
2018-05-23T03:41:02.026Z,75.57
2018-05-23T03:43:33.608Z,75.68
2018-05-23T03:46:00.328Z,76.19
2018-05-23T03:48:27.085Z,75.41
2018-05-23T03:50:53.616Z,75.21
2018-05-23T03:53:44.285Z,74.84
2018-05-23T03:56:11.242Z,74.53
2018-05-23T03:58:37.897Z,74.82
2018-05-23T04:01:16.420Z,73.73
2018-05-23T04:03:58.601Z,73.42
2018-05-23T04:06:33.812Z,72.07
2018-05-23T04:09:00.486Z,70.00
2018-05-23T04:11:27.052Z,69.18
2018-05-23T04:14:03.704Z,68.82
2018-05-23T04:16:30.313Z,68.10
2018-05-23T04:18:56.974Z,68.19
2018-05-23T04:21:23.421Z,67.45
2018-05-23T04:23:57.010Z,66.55
2018-05-23T04:26:23.673Z,67.90
2018-05-23T04:28:50.392Z,68.05
2018-05-23T04:31:16.999Z,71.75
2018-05-23T04:33:54.693Z,73.27
2018-05-23T04:36:21.466Z,74.71
2018-05-23T04:38:48.122Z,75.62
2018-05-23T04:41:14.733Z,75.15
2018-05-23T04:43:45.836Z,74.84
2018-05-23T04:46:12.513Z,74.24
2018-05-23T04:48:39.283Z,75.21
2018-05-23T04:51:06.004Z,75.31
2018-05-23T04:53:36.979Z,73.74
2018-05-23T04:56:03.530Z,74.28
2018-05-23T04:58:30.097Z,73.37
2018-05-23T05:00:57.054Z,73.05
2018-05-23T05:03:29.814Z,72.83
2018-05-23T05:05:56.705Z,71.61
2018-05-23T05:11:16.653Z,70.77
2018-05-23T05:13:47.089Z,70.84
2018-05-23T05:16:13.608Z,69.40
2018-05-23T05:18:40.145Z,69.53
2018-05-23T05:21:06.796Z,65.93
2018-05-23T05:23:37.448Z,68.00
2018-05-23T05:26:04.391Z,67.67
2018-05-23T05:28:31.073Z,63.10
2018-05-23T05:30:57.829Z,60.74
2018-05-23T05:33:25.518Z,57.71
2018-05-23T05:35:52.261Z,58.57
2018-05-23T05:38:18.955Z,57.93
2018-05-23T05:40:45.704Z,57.04
2018-05-23T05:43:13.481Z,56.58
2018-05-23T05:45:40.975Z,56.59
2018-05-23T05:48:07.644Z,55.98
2018-05-23T05:50:34.189Z,55.24
2018-05-23T05:53:05.873Z,56.03
2018-05-23T05:55:32.613Z,54.70
2018-05-23T05:57:59.621Z,55.45
2018-05-23T06:00:26.268Z,53.17
2018-05-23T06:03:03.685Z,52.72
2018-05-23T06:05:30.224Z,53.34
2018-05-23T06:07:56.697Z,53.53
2018-05-23T06:10:23.394Z,53.98
2018-05-23T06:12:55.621Z,54.93
2018-05-23T06:15:22.443Z,54.58
2018-05-23T06:17:49.270Z,53.64
2018-05-23T06:20:15.916Z,53.79
2018-05-23T06:22:43.737Z,56.49
2018-05-23T06:25:10.243Z,58.46
2018-05-23T06:27:36.977Z,55.37
2018-05-23T06:30:03.546Z,56.81
2018-05-23T06:32:30.758Z,56.33
2018-05-23T06:34:57.641Z,56.79
2018-05-23T06:37:24.224Z,57.03
2018-05-23T06:39:50.939Z,57.22
2018-05-23T06:42:17.853Z,57.62
2018-05-23T06:44:44.521Z,52.10
2018-05-23T06:47:11.525Z,51.57
2018-05-23T06:49:38.189Z,51.80
2018-05-23T06:52:08.198Z,52.19
2018-05-23T06:54:34.995Z,50.47
2018-05-23T06:57:02.795Z,49.81
2018-05-23T06:59:29.652Z,49.72
2018-05-23T07:01:59.781Z,49.80
2018-05-23T07:04:26.365Z,50.38
2018-05-23T07:06:52.908Z,50.10
2018-05-23T07:09:19.573Z,49.65
2018-05-23T07:11:50.485Z,49.87
2018-05-23T07:14:17.135Z,51.50
2018-05-23T07:16:43.764Z,54.20
2018-05-23T07:19:10.252Z,54.38
2018-05-23T07:21:36.901Z,53.80
2018-05-23T07:24:03.749Z,54.18
2018-05-23T07:26:30.342Z,53.64
2018-05-23T07:28:57.941Z,52.68
2018-05-23T07:31:28.903Z,53.87
2018-05-23T07:33:55.615Z,52.34
2018-05-23T07:36:22.325Z,51.20
2018-05-23T07:38:48.989Z,50.64
2018-05-23T07:41:15.672Z,50.92
2018-05-23T07:43:42.563Z,48.63
2018-05-23T07:46:09.188Z,47.25
2018-05-23T07:48:35.818Z,45.87
2018-05-23T07:51:02.631Z,47.35
2018-05-23T07:53:30.526Z,48.43
2018-05-23T07:55:57.085Z,50.00
2018-05-23T07:58:23.730Z,49.37
2018-05-23T08:00:50.314Z,49.64
2018-05-23T08:03:20.105Z,48.88
2018-05-23T08:05:46.756Z,50.31
2018-05-23T08:08:13.595Z,49.31
2018-05-23T08:10:40.723Z,48.23
2018-05-23T08:13:08.702Z,49.08
2018-05-23T08:15:35.643Z,48.43
2018-05-23T08:18:02.264Z,47.61
2018-05-23T08:20:29.009Z,48.42
2018-05-23T08:23:06.140Z,47.92
2018-05-23T08:25:33.153Z,48.24
2018-05-23T08:27:59.785Z,48.48
2018-05-23T08:30:26.366Z,47.58
2018-05-23T08:32:53.168Z,47.48
2018-05-23T08:35:19.838Z,48.38
2018-05-23T08:37:46.338Z,47.74
2018-05-23T08:40:13.317Z,48.38
2018-05-23T08:42:45.193Z,47.71
2018-05-23T08:45:11.920Z,47.47
2018-05-23T08:47:38.679Z,47.08
2018-05-23T08:50:05.349Z,47.21
2018-05-23T08:52:33.132Z,47.61
2018-05-23T08:54:59.765Z,47.85
2018-05-23T08:57:26.371Z,47.57
2018-05-23T08:59:52.857Z,48.62
2018-05-23T09:02:19.894Z,46.76
2018-05-23T09:04:46.525Z,47.06
2018-05-23T09:07:13.218Z,48.57
2018-05-23T09:09:39.713Z,47.92
2018-05-23T09:12:07.672Z,47.82
2018-05-23T09:14:34.450Z,48.92
2018-05-23T09:17:01.098Z,47.63
2018-05-23T09:19:27.848Z,48.24
2018-05-23T09:21:55.750Z,45.28
2018-05-23T09:24:22.706Z,46.67
2018-05-23T09:26:52.565Z,46.13
2018-05-23T09:29:19.617Z,45.70
2018-05-23T09:31:46.525Z,41.93
2018-05-23T09:34:13.514Z,40.07
2018-05-23T09:36:40.236Z,39.67
2018-05-23T09:39:07.497Z,41.63
2018-05-23T09:41:34.609Z,43.59
2018-05-23T09:44:01.710Z,43.84
2018-05-23T09:46:28.245Z,40.30
2018-05-23T09:48:54.816Z,40.63
2018-05-23T09:51:26.174Z,40.17
2018-05-23T09:53:52.961Z,40.31
2018-05-23T09:56:19.683Z,41.80
2018-05-23T09:58:46.560Z,43.62
2018-05-23T10:01:20.840Z,39.37
2018-05-23T10:03:47.598Z,39.68
2018-05-23T10:06:14.376Z,39.34
2018-05-23T10:08:41.010Z,36.86
2018-05-23T10:11:21.919Z,36.63
2018-05-23T10:13:48.709Z,38.04
2018-05-23T10:16:15.441Z,37.03
2018-05-23T10:18:42.094Z,38.09
2018-05-23T10:21:12.639Z,37.26
2018-05-23T10:23:39.565Z,36.51
2018-05-23T10:26:06.194Z,37.20
2018-05-23T10:28:32.903Z,37.77
2018-05-23T10:31:03.605Z,36.83
2018-05-23T10:33:30.406Z,35.23
2018-05-23T10:35:57.082Z,34.52
2018-05-23T10:38:24.313Z,35.47
2018-05-23T10:40:51.175Z,33.83
2018-05-23T10:43:17.981Z,35.83
2018-05-23T10:45:45.247Z,38.06
2018-05-23T10:48:12.093Z,38.08
2018-05-23T10:50:38.751Z,37.46
2018-05-23T10:53:15.710Z,35.76
2018-05-23T10:55:42.649Z,36.68
2018-05-23T10:58:09.363Z,36.55
2018-05-23T11:00:36.080Z,36.97
2018-05-23T11:03:06.689Z,37.17
2018-05-23T11:05:33.343Z,36.76
2018-05-23T11:07:59.962Z,36.10
2018-05-23T11:10:27.099Z,35.86
2018-05-23T11:13:00.294Z,38.39
2018-05-23T11:15:26.858Z,36.27
2018-05-23T11:17:53.372Z,36.44
2018-05-23T11:20:20.038Z,36.02
2018-05-23T11:22:50.720Z,38.49
2018-05-23T11:25:17.346Z,35.70
2018-05-23T11:27:44.262Z,35.74
2018-05-23T11:30:10.838Z,35.49
2018-05-23T11:32:38.571Z,36.92
2018-05-23T11:35:05.153Z,36.72
2018-05-23T11:37:32.001Z,36.50
2018-05-23T11:39:58.907Z,36.46
2018-05-23T11:42:30.246Z,37.13
2018-05-23T11:44:56.879Z,35.99
2018-05-23T11:47:23.878Z,39.07
2018-05-23T11:49:51.018Z,41.39
2018-05-23T11:52:21.557Z,36.96
2018-05-23T11:54:48.798Z,37.44
2018-05-23T11:57:15.460Z,42.63
2018-05-23T11:59:42.107Z,42.24
2018-05-23T12:02:13.110Z,44.76
2018-05-23T12:04:39.704Z,45.12
2018-05-23T12:07:06.788Z,43.88
2018-05-23T12:09:33.433Z,42.35
2018-05-23T12:12:07.347Z,43.20
2018-05-23T12:14:34.052Z,43.50
2018-05-23T12:17:00.768Z,42.07
2018-05-23T12:19:27.482Z,43.29
2018-05-23T12:21:54.365Z,42.75
2018-05-23T12:24:21.376Z,41.68
2018-05-23T12:26:48.106Z,39.76
2018-05-23T12:29:15.006Z,37.28
2018-05-23T12:31:42.705Z,37.12
2018-05-23T12:34:09.405Z,40.47
2018-05-23T12:36:36.199Z,35.71
2018-05-23T12:39:02.906Z,36.30
2018-05-23T12:41:30.762Z,35.77
2018-05-23T12:43:57.489Z,34.36
2018-05-23T12:46:24.188Z,37.03
2018-05-23T12:48:50.833Z,36.88
2018-05-23T12:51:17.453Z,38.92
2018-05-23T12:53:44.073Z,39.73
2018-05-23T12:56:10.715Z,42.47
2018-05-23T12:58:37.276Z,41.42
2018-05-23T13:01:04.892Z,41.33
2018-05-23T13:03:31.569Z,41.33
2018-05-23T13:05:58.157Z,42.17
2018-05-23T13:08:24.688Z,41.92
2018-05-23T13:10:56.332Z,41.04
2018-05-23T13:13:22.942Z,43.73
2018-05-23T13:15:49.615Z,42.00
2018-05-23T13:18:16.277Z,43.37
2018-05-23T13:20:44.151Z,41.25
2018-05-23T13:23:10.868Z,40.98
2018-05-23T13:25:37.506Z,41.41
2018-05-23T13:28:04.018Z,43.78
2018-05-23T13:30:33.822Z,43.19
2018-05-23T13:33:00.392Z,43.14
2018-05-23T13:35:27.369Z,41.74
2018-05-23T13:37:54.189Z,43.12
2018-05-23T13:40:20.860Z,42.17
2018-05-23T13:42:47.981Z,42.13
2018-05-23T13:45:14.610Z,41.82
2018-05-23T13:47:41.333Z,41.92
2018-05-23T13:50:07.958Z,41.76
2018-05-23T13:52:40.584Z,42.82
2018-05-23T13:55:07.226Z,43.31
2018-05-23T13:57:34.010Z,41.26
2018-05-23T14:00:00.837Z,41.02
2018-05-23T14:02:33.644Z,43.78
2018-05-23T14:05:00.320Z,41.58
2018-05-23T14:07:27.066Z,39.51
2018-05-23T14:09:53.722Z,40.32
2018-05-23T14:12:27.692Z,40.86
2018-05-23T14:14:54.388Z,42.59
2018-05-23T14:17:21.010Z,42.52
2018-05-23T14:19:47.717Z,42.41
2018-05-23T14:22:15.436Z,42.03
2018-05-23T14:24:42.435Z,41.33
2018-05-23T14:27:09.121Z,41.60
2018-05-23T14:29:35.833Z,42.22
2018-05-23T14:32:06.040Z,42.25
2018-05-23T14:34:32.551Z,39.89
2018-05-23T14:36:59.217Z,42.45
2018-05-23T14:39:25.771Z,41.37
2018-05-23T14:41:53.579Z,41.77
2018-05-23T14:44:20.374Z,43.84
2018-05-23T14:46:47.289Z,43.41
2018-05-23T14:49:13.999Z,44.38
2018-05-23T14:51:48.058Z,43.94
2018-05-23T14:54:14.724Z,42.54
2018-05-23T14:56:41.450Z,44.63
2018-05-23T14:59:08.390Z,43.41
2018-05-23T15:01:38.216Z,43.83
2018-05-23T15:04:05.088Z,44.68
2018-05-23T15:06:31.702Z,43.45
2018-05-23T15:08:58.377Z,41.49
2018-05-23T15:11:26.053Z,40.84
2018-05-23T15:13:52.691Z,44.78
2018-05-23T15:16:19.409Z,44.36
2018-05-23T15:18:46.122Z,45.53
2018-05-23T15:21:16.338Z,42.31
2018-05-23T15:23:43.010Z,42.96
2018-05-23T15:26:10.286Z,41.60
2018-05-23T15:28:36.936Z,43.88
2018-05-23T15:31:04.055Z,49.46
2018-05-23T15:33:30.882Z,49.43
2018-05-23T15:35:57.941Z,49.23
2018-05-23T15:38:24.494Z,45.81
2018-05-23T15:40:51.282Z,44.96
2018-05-23T15:43:18.108Z,45.99
2018-05-23T15:45:44.673Z,48.87
2018-05-23T15:48:11.306Z,49.86
2018-05-23T15:50:39.103Z,48.04
2018-05-23T15:53:05.794Z,48.43
2018-05-23T15:55:32.553Z,48.26
2018-05-23T15:57:59.938Z,51.01
2018-05-23T16:00:30.465Z,48.19
2018-05-23T16:02:57.228Z,49.74
2018-05-23T16:05:24.110Z,52.74
2018-05-23T16:07:50.786Z,53.27
2018-05-23T16:10:19.030Z,47.48
2018-05-23T16:12:45.615Z,43.15
2018-05-23T16:15:12.649Z,42.53
2018-05-23T16:17:39.332Z,44.00
2018-05-23T16:20:09.055Z,45.28
2018-05-23T16:22:35.625Z,47.55
2018-05-23T16:25:02.145Z,45.55
2018-05-23T16:27:28.807Z,51.37
2018-05-23T16:30:01.809Z,51.52
2018-05-23T16:32:28.410Z,50.28
2018-05-23T16:34:55.109Z,50.82
2018-05-23T16:37:22.073Z,50.58
2018-05-23T16:39:48.718Z,50.09
2018-05-23T16:42:15.705Z,53.79
2018-05-23T16:44:42.658Z,51.34
2018-05-23T16:47:09.209Z,54.86
2018-05-23T16:49:35.935Z,55.36
2018-05-23T16:52:03.716Z,56.25
2018-05-23T16:54:30.400Z,55.87
2018-05-23T16:56:57.049Z,54.55
2018-05-23T16:59:23.745Z,54.38
2018-05-23T17:01:55.420Z,54.94
2018-05-23T17:04:22.154Z,54.85
2018-05-23T17:06:48.785Z,55.14
2018-05-23T17:09:15.324Z,56.69
2018-05-23T17:11:45.475Z,57.05
2018-05-23T17:14:12.202Z,57.72
2018-05-23T17:16:38.722Z,57.58
2018-05-23T17:19:05.443Z,58.64
2018-05-23T17:21:35.906Z,58.58
2018-05-23T17:24:02.737Z,59.45
2018-05-23T17:26:29.694Z,59.51
2018-05-23T17:28:56.346Z,59.60
2018-05-23T17:31:23.031Z,60.00
2018-05-23T17:33:49.761Z,60.88
2018-05-23T17:36:16.450Z,60.70
2018-05-23T17:38:43.086Z,61.01
2018-05-23T17:41:10.906Z,61.59
2018-05-23T17:43:37.558Z,61.22
2018-05-23T17:46:04.227Z,61.68
2018-05-23T17:48:30.826Z,61.46
2018-05-23T17:51:00.896Z,62.48
2018-05-23T17:53:27.885Z,62.92
2018-05-23T17:55:54.566Z,63.53
2018-05-23T17:58:21.278Z,61.99
2018-05-23T18:00:49.207Z,62.61
2018-05-23T18:03:15.705Z,61.61
2018-05-23T18:05:42.376Z,59.60
2018-05-23T18:08:09.158Z,62.13
2018-05-23T18:10:39.318Z,61.68
2018-05-23T18:13:05.925Z,63.01
2018-05-23T18:15:32.953Z,63.13
2018-05-23T18:18:00.729Z,62.29
2018-05-23T18:20:28.655Z,62.39
2018-05-23T18:22:55.587Z,63.49
2018-05-23T18:25:22.539Z,61.97
2018-05-23T18:27:49.270Z,60.48
2018-05-23T18:30:15.790Z,59.21
2018-05-23T18:32:42.972Z,59.67
2018-05-23T18:35:09.476Z,60.10
2018-05-23T18:37:36.170Z,60.95
2018-05-23T18:40:06.760Z,60.38
2018-05-23T18:42:33.530Z,59.28
2018-05-23T18:45:00.289Z,60.26
2018-05-23T18:47:26.843Z,60.94
2018-05-23T18:49:56.756Z,59.43
2018-05-23T18:52:23.442Z,60.41
2018-05-23T18:54:50.114Z,60.42
2018-05-23T18:57:16.822Z,60.27
2018-05-23T18:59:44.741Z,60.81
2018-05-23T19:02:11.446Z,64.68
2018-05-23T19:04:38.097Z,60.81
2018-05-23T19:07:04.767Z,60.58
2018-05-23T19:09:31.555Z,60.92
2018-05-23T19:11:58.292Z,60.73
2018-05-23T19:14:25.010Z,60.85
2018-05-23T19:16:51.834Z,61.71
2018-05-23T19:19:18.488Z,62.30
2018-05-23T19:21:45.317Z,63.15
2018-05-23T19:24:11.951Z,61.66
2018-05-23T19:26:38.662Z,61.88
2018-05-23T19:29:05.315Z,61.57
2018-05-23T19:31:35.796Z,61.72
2018-05-23T19:34:02.752Z,63.05
2018-05-23T19:36:29.464Z,65.47
2018-05-23T19:38:56.286Z,68.11
2018-05-23T19:41:24.173Z,68.84
2018-05-23T19:43:50.857Z,71.45
2018-05-23T19:46:17.697Z,70.58
2018-05-23T19:48:44.897Z,71.18
2018-05-23T19:51:15.616Z,72.77
2018-05-23T19:53:42.357Z,72.57
2018-05-23T19:56:09.633Z,71.42
2018-05-23T19:58:36.236Z,69.13
2018-05-23T20:01:06.972Z,69.62
2018-05-23T20:03:33.838Z,70.44
2018-05-23T20:06:00.548Z,70.67
2018-05-23T20:08:27.275Z,71.04
2018-05-23T20:10:55.982Z,70.63
2018-05-23T20:13:22.646Z,71.30
2018-05-23T20:15:50.090Z,70.88
2018-05-23T20:18:17.167Z,69.87
2018-05-23T20:20:43.981Z,69.96
2018-05-23T20:23:17.426Z,70.47
2018-05-23T20:25:50.297Z,70.68
2018-05-23T20:28:23.554Z,71.61
2018-05-23T20:30:59.855Z,71.56
2018-05-23T20:33:33.316Z,71.91
2018-05-23T20:36:06.575Z,72.59
2018-05-23T20:38:39.461Z,72.52
2018-05-23T20:41:14.817Z,73.20
2018-05-23T20:43:48.482Z,73.31
2018-05-23T20:46:21.226Z,72.13
2018-05-23T20:48:54.466Z,72.01
2018-05-23T20:51:31.154Z,72.90
2018-05-23T20:54:03.833Z,71.14
2018-05-23T20:56:37.443Z,71.86
2018-05-23T20:59:10.804Z,72.20
2018-05-23T21:01:44.238Z,71.60
2018-05-23T21:04:17.742Z,70.01
2018-05-23T21:06:51.059Z,69.86
2018-05-23T21:09:28.325Z,69.77
2018-05-23T21:12:02.002Z,69.94
2018-05-23T21:14:34.967Z,69.44
2018-05-23T21:17:08.430Z,68.87
2018-05-23T21:19:44.802Z,68.52
2018-05-23T21:22:17.918Z,68.78
2018-05-23T21:24:52.505Z,69.33
2018-05-23T21:27:25.806Z,69.03
2018-05-23T21:30:06.597Z,69.38
2018-05-23T21:32:39.831Z,70.06
2018-05-23T21:35:13.421Z,70.69
2018-05-23T21:37:46.311Z,69.86
2018-05-23T21:40:20.756Z,69.50
2018-05-23T21:42:54.167Z,68.92
2018-05-23T21:45:27.132Z,68.80
2018-05-23T21:48:00.157Z,69.51
2018-05-23T21:50:33.410Z,69.16
2018-05-23T21:53:06.238Z,69.39
2018-05-23T21:55:40.013Z,69.55
2018-05-23T21:58:12.626Z,68.77
2018-05-23T22:00:46.257Z,69.35
2018-05-23T22:03:19.644Z,69.15
2018-05-23T22:05:53.597Z,68.55
2018-05-23T22:08:26.825Z,68.78
2018-05-23T22:11:00.408Z,68.85
2018-05-23T22:13:33.054Z,68.75
2018-05-23T22:16:06.414Z,68.70
2018-05-23T22:18:39.862Z,69.32
2018-05-23T22:21:12.761Z,70.65
2018-05-23T22:23:45.972Z,71.73
2018-05-23T22:26:19.478Z,71.10
2018-05-23T22:28:52.157Z,71.92
2018-05-23T22:31:24.839Z,71.08
2018-05-23T22:33:57.456Z,70.02
2018-05-23T22:36:30.994Z,70.46
2018-05-23T22:39:04.572Z,70.47
2018-05-23T22:41:38.570Z,71.07
2018-05-23T22:44:11.350Z,70.18
2018-05-23T22:46:44.859Z,69.96
2018-05-23T22:49:21.904Z,69.08
2018-05-23T22:51:54.969Z,68.99
2018-05-23T22:54:28.318Z,68.76
2018-05-23T22:57:02.332Z,68.96
2018-05-23T22:59:36.196Z,71.22
2018-05-23T23:02:09.063Z,71.48
2018-05-23T23:04:42.306Z,70.47
2018-05-23T23:07:15.458Z,71.08
2018-05-23T23:09:48.898Z,71.87
2018-05-23T23:12:21.596Z,72.43
2018-05-23T23:14:54.405Z,72.10
2018-05-23T23:17:28.220Z,71.66
2018-05-23T23:20:02.503Z,72.45
2018-05-23T23:22:38.037Z,73.05
2018-05-23T23:25:11.497Z,73.75
2018-05-23T23:27:44.933Z,73.93
2018-05-23T23:30:21.404Z,73.97
2018-05-23T23:32:54.683Z,74.56
2018-05-23T23:35:28.911Z,73.80
2018-05-23T23:38:02.374Z,73.87
2018-05-23T23:40:35.692Z,73.11
2018-05-23T23:43:08.736Z,72.28
2018-05-23T23:45:42.338Z,72.13
2018-05-23T23:48:15.877Z,71.98
2018-05-23T23:50:49.357Z,72.55
2018-05-23T23:53:22.113Z,72.65
2018-05-23T23:55:55.026Z,72.70
2018-05-23T23:58:28.656Z,72.55
